Thornville, Ohio
Current Conditions -  °F | °C
As of 4:05 PM on Tuesday 21 Oct 2014 (Local Time) from KVTA Reporting Station
Overcast Overcast  
Wind Chill: 51°   Ceiling: 2400
Heat Index: 51°   Visibility: 10mi
Dew Point: 43°   Wind: 12mph
Humidity: 74%   Direction: 330°NNW
Pressure: 30.01"   Gusts: 22mph
Location:  39.9°N, 82.42°W
Report Text: KVTA 212005Z AUTO 33010G19KT 10SM BKN024 OVC032 11/06 A3001 RMK AO2 T01060061
Loading
Personal Weather Stations






























Interactive Weather Map New forecast layout! Learn more

10-Day Weather Forecast

Advertisements
Track Severe Weather on mobile